Time;durP1;ratioP1;P1;durP2;ratioP2;P2;SDS_P1;SDS_P2;PMS_P1;PMS_P2;Temp;Humidity;BMP_temperature;BMP_pressure;BME280_temperature;BME280_humidity;BME280_pressure;Samples;Min_cycle;Max_cycle;Signal;HPM_P1;HPM_P2
2022/03/17 05:00:26;;;;;;;36.33;32.33;;;9.10;99.90;;;;;;6003491;23;20391;-63
2022/03/17 05:02:53;;;;;;;38.30;33.47;;;9.10;99.90;;;;;;5026323;28;20422;-63
2022/03/17 05:05:20;;;;;;;35.23;31.43;;;9.10;99.90;;;;;;5026233;28;20448;-63
2022/03/17 05:07:46;;;;;;;34.63;30.90;;;9.10;99.90;;;;;;5022702;28;20448;-62
2022/03/17 05:10:13;;;;;;;36.03;31.50;;;9.20;99.90;;;;;;5021517;28;20438;-63
2022/03/17 05:12:40;;;;;;;36.20;32.30;;;9.10;99.90;;;;;;5021585;28;20531;-63
2022/03/17 05:15:07;;;;;;;37.70;33.20;;;9.10;99.90;;;;;;5020489;28;20816;-63
2022/03/17 05:17:39;;;;;;;35.10;31.20;;;9.10;99.90;;;;;;5018490;28;20962;-63
2022/03/17 05:20:09;;;;;;;38.67;34.23;;;9.10;99.90;;;;;;5017526;28;20434;-63
2022/03/17 05:22:36;;;;;;;38.40;33.50;;;9.10;99.90;;;;;;5019184;28;20456;-62
2022/03/17 05:25:04;;;;;;;38.40;34.50;;;9.10;99.90;;;;;;5018359;28;20463;-62
2022/03/17 05:27:31;;;;;;;36.70;32.80;;;9.10;99.90;;;;;;5018439;28;20453;-63
2022/03/17 05:29:58;;;;;;;36.93;32.93;;;9.00;99.90;;;;;;5017841;28;20457;-62
2022/03/17 05:32:24;;;;;;;37.70;33.10;;;9.00;99.90;;;;;;5018447;28;20499;-62
2022/03/17 05:34:52;;;;;;;37.40;33.37;;;9.00;99.90;;;;;;5020101;28;20457;-63
2022/03/17 05:37:19;;;;;;;37.23;33.20;;;9.00;99.90;;;;;;5020574;28;20453;-62
2022/03/17 05:39:46;;;;;;;37.80;34.00;;;9.00;99.90;;;;;;5020959;28;20499;-62
2022/03/17 05:42:12;;;;;;;37.13;33.33;;;8.90;99.90;;;;;;5021356;28;20472;-62
2022/03/17 05:44:39;;;;;;;38.20;31.60;;;8.90;99.90;;;;;;5019469;28;20464;-63
2022/03/17 05:47:07;;;;;;;35.67;31.87;;;8.90;99.90;;;;;;5019190;28;20480;-62
2022/03/17 05:49:33;;;;;;;38.63;32.07;;;8.90;99.90;;;;;;5020083;28;20449;-62
2022/03/17 05:52:01;;;;;;;37.87;31.80;;;8.90;99.90;;;;;;5019284;28;20486;-61
2022/03/17 05:54:28;;;;;;;36.33;32.43;;;8.90;99.90;;;;;;5019354;28;20507;-62
2022/03/17 05:56:55;;;;;;;37.83;33.73;;;8.90;99.90;;;;;;5018042;28;20936;-63
2022/03/17 05:59:22;;;;;;;38.33;32.37;;;8.90;99.90;;;;;;5019045;28;20492;-62
2022/03/17 06:01:48;;;;;;;36.27;32.20;;;8.90;99.90;;;;;;5018898;28;20481;-62
2022/03/17 06:04:15;;;;;;;35.60;31.90;;;8.90;99.90;;;;;;5018235;28;20480;-62
2022/03/17 06:06:42;;;;;;;35.80;31.90;;;9.00;99.90;;;;;;5018497;28;20507;-63
2022/03/17 06:09:10;;;;;;;38.10;34.00;;;9.00;99.90;;;;;;5018379;28;20475;-63
2022/03/17 06:11:37;;;;;;;48.07;36.53;;;9.00;99.90;;;;;;5018695;28;20477;-63
2022/03/17 06:14:03;;;;;;;38.50;34.40;;;9.10;99.90;;;;;;5022125;28;20448;-63
2022/03/17 06:16:30;;;;;;;37.80;33.80;;;9.10;99.90;;;;;;5021901;28;20464;-63
2022/03/17 06:18:57;;;;;;;35.10;31.37;;;9.10;99.90;;;;;;5022764;28;20477;-63
2022/03/17 06:21:24;;;;;;;37.83;32.07;;;9.20;99.90;;;;;;5018218;28;20999;-63
2022/03/17 06:23:51;;;;;;;36.00;32.30;;;9.20;99.90;;;;;;5019264;28;20453;-63
2022/03/17 06:26:19;;;;;;;37.63;33.73;;;9.20;99.90;;;;;;5031754;28;20456;-63
2022/03/17 06:28:46;;;;;;;39.03;34.17;;;9.30;99.90;;;;;;5026983;28;20444;-63
2022/03/17 06:31:12;;;;;;;36.17;32.37;;;9.30;99.90;;;;;;5028090;28;20476;-63
2022/03/17 06:33:39;;;;;;;37.50;33.47;;;9.30;99.90;;;;;;5026784;28;20456;-62
2022/03/17 06:36:06;;;;;;;36.43;32.03;;;9.30;99.90;;;;;;5019064;28;20466;-63
2022/03/17 06:38:33;;;;;;;36.90;33.00;;;9.40;99.90;;;;;;5018313;28;20480;-63
2022/03/17 06:41:00;;;;;;;35.77;32.07;;;9.40;99.90;;;;;;5018463;28;20481;-63
2022/03/17 06:43:28;;;;;;;34.93;31.23;;;9.40;99.90;;;;;;5019542;28;20453;-63
2022/03/17 06:45:54;;;;;;;36.13;32.17;;;9.40;99.90;;;;;;5019752;28;20984;-64
2022/03/17 06:48:21;;;;;;;34.93;31.13;;;9.60;99.90;;;;;;5019608;28;20449;-63
2022/03/17 06:50:48;;;;;;;35.80;32.10;;;9.80;99.90;;;;;;5033413;28;20473;-65
2022/03/17 06:53:15;;;;;;;37.57;32.87;;;9.90;99.90;;;;;;5028065;28;20460;-63
2022/03/17 06:55:42;;;;;;;35.33;31.60;;;10.10;99.90;;;;;;5024859;28;20452;-64
2022/03/17 06:58:09;;;;;;;37.93;33.93;;;10.20;99.90;;;;;;5019223;28;20453;-63
2022/03/17 07:00:37;;;;;;;40.93;33.93;;;10.20;99.90;;;;;;5021397;28;20598;-63
2022/03/17 07:03:03;;;;;;;39.00;34.90;;;10.30;99.90;;;;;;5021594;28;20445;-63
2022/03/17 07:05:30;;;;;;;38.70;34.20;;;10.20;99.90;;;;;;5022252;28;20448;-64
2022/03/17 07:07:59;;;;;;;37.10;31.80;;;10.20;99.90;;;;;;5021272;28;20460;-63
2022/03/17 07:10:27;;;;;;;37.63;32.30;;;10.10;99.90;;;;;;5020604;28;20449;-63
2022/03/17 07:12:54;;;;;;;36.37;32.77;;;10.10;99.90;;;;;;5020679;28;20460;-63
2022/03/17 07:15:21;;;;;;;35.63;31.90;;;10.10;99.90;;;;;;5029421;28;20453;-62
2022/03/17 07:17:49;;;;;;;41.83;34.93;;;10.10;99.90;;;;;;5034073;28;20455;-63
2022/03/17 07:20:19;;;;;;;41.77;32.00;;;9.90;99.90;;;;;;5036299;28;20477;-63
2022/03/17 07:22:47;;;;;;;37.27;33.37;;;9.90;99.90;;;;;;5028630;28;20459;-63
2022/03/17 07:25:15;;;;;;;39.00;32.80;;;9.80;99.90;;;;;;5021768;28;20860;-62
2022/03/17 07:27:44;;;;;;;39.30;33.30;;;9.70;99.90;;;;;;5021421;28;20456;-62
2022/03/17 07:30:12;;;;;;;42.23;32.87;;;9.70;99.90;;;;;;5022956;28;20445;-62
2022/03/17 07:32:39;;;;;;;40.43;32.20;;;9.70;99.90;;;;;;5026478;28;20461;-63
2022/03/17 07:35:10;;;;;;;40.60;33.83;;;9.70;99.90;;;;;;5023377;28;20962;-62
2022/03/17 07:37:36;;;;;;;39.63;35.40;;;9.70;99.90;;;;;;5021925;28;20453;-64
2022/03/17 07:40:08;;;;;;;41.93;33.80;;;9.80;99.90;;;;;;5021627;28;20485;-63
2022/03/17 07:42:35;;;;;;;36.60;32.07;;;9.80;99.90;;;;;;5023217;28;20470;-63
2022/03/17 07:45:02;;;;;;;47.63;32.90;;;9.80;99.90;;;;;;5020717;28;20453;-64
2022/03/17 07:47:29;;;;;;;37.73;33.50;;;9.80;99.90;;;;;;5022898;28;20449;-64
2022/03/17 07:49:56;;;;;;;39.13;34.00;;;9.80;99.90;;;;;;5020092;28;20451;-63
2022/03/17 07:52:24;;;;;;;38.43;34.23;;;9.70;99.90;;;;;;5020082;28;20903;-62
2022/03/17 07:54:51;;;;;;;38.80;33.67;;;9.80;99.90;;;;;;5021451;28;20457;-62
2022/03/17 07:57:18;;;;;;;39.07;34.87;;;9.80;99.90;;;;;;5022761;28;20457;-62
2022/03/17 07:59:44;;;;;;;37.97;33.97;;;9.80;99.90;;;;;;5021009;28;20473;-62
2022/03/17 08:02:11;;;;;;;38.30;34.13;;;9.90;99.90;;;;;;5019311;28;20485;-62
2022/03/17 08:04:38;;;;;;;37.63;33.63;;;10.00;99.90;;;;;;5019011;28;20464;-63
2022/03/17 08:07:05;;;;;;;42.37;34.90;;;10.00;99.90;;;;;;5019141;28;20463;-63
2022/03/17 08:09:33;;;;;;;38.30;33.67;;;10.10;99.90;;;;;;5019190;28;20460;-63
2022/03/17 08:12:00;;;;;;;40.40;35.37;;;10.20;99.90;;;;;;5020116;28;20473;-64
2022/03/17 08:14:27;;;;;;;41.03;35.73;;;10.30;99.90;;;;;;5019478;28;20453;-62
2022/03/17 08:16:54;;;;;;;39.63;35.37;;;10.30;99.90;;;;;;5024575;28;20457;-62
2022/03/17 08:19:21;;;;;;;39.40;35.27;;;10.40;99.90;;;;;;5029172;28;20560;-62
2022/03/17 08:21:47;;;;;;;38.73;34.10;;;10.40;99.90;;;;;;5027344;28;20484;-62
2022/03/17 08:24:14;;;;;;;43.93;34.07;;;10.40;99.90;;;;;;5020422;28;20536;-62
2022/03/17 08:26:43;;;;;;;47.60;36.90;;;10.40;99.90;;;;;;5020534;28;20453;-63
2022/03/17 08:29:09;;;;;;;40.80;36.40;;;10.40;99.90;;;;;;5019966;28;20453;-63
2022/03/17 08:31:36;;;;;;;40.73;36.30;;;10.40;99.90;;;;;;5023842;28;20469;-63
2022/03/17 08:34:03;;;;;;;40.93;35.50;;;10.40;99.90;;;;;;5027644;28;20453;-63
2022/03/17 08:36:30;;;;;;;42.40;37.53;;;10.30;99.90;;;;;;5020291;28;20453;-63
2022/03/17 08:38:56;;;;;;;40.40;35.50;;;10.30;99.90;;;;;;5032378;28;20483;-63
2022/03/17 08:41:23;;;;;;;43.43;36.63;;;10.30;99.90;;;;;;5025920;28;20477;-63
2022/03/17 08:43:52;;;;;;;38.60;34.70;;;10.30;99.90;;;;;;5018914;28;20908;-63
2022/03/17 08:49:20;;;;;;;40.03;35.63;;;10.40;99.90;;;;;;5019380;28;20413;-63
2022/03/17 08:51:49;;;;;;;40.30;36.10;;;10.40;99.90;;;;;;5021681;28;20882;-64
2022/03/17 08:54:16;;;;;;;40.40;36.10;;;10.40;99.90;;;;;;5018974;28;20444;-63
2022/03/17 08:56:43;;;;;;;42.00;37.17;;;10.40;99.90;;;;;;5020163;28;20559;-63
2022/03/17 08:59:11;;;;;;;44.67;37.10;;;10.40;99.90;;;;;;5020405;28;21018;-64
2022/03/17 09:01:38;;;;;;;42.07;36.17;;;10.50;99.90;;;;;;5020101;28;20485;-63
2022/03/17 09:04:05;;;;;;;47.37;37.97;;;10.50;99.90;;;;;;5020574;28;20787;-62
2022/03/17 09:06:32;;;;;;;44.67;38.60;;;10.60;99.90;;;;;;5018332;28;20461;-62
2022/03/17 09:08:59;;;;;;;42.63;38.07;;;10.70;99.90;;;;;;5018265;28;20449;-62
2022/03/17 09:11:26;;;;;;;43.07;38.37;;;10.70;99.90;;;;;;5019529;28;20484;-62
2022/03/17 09:13:53;;;;;;;40.40;36.10;;;10.80;99.90;;;;;;5018730;28;20944;-63
2022/03/17 09:16:21;;;;;;;44.07;37.37;;;10.90;99.90;;;;;;5019997;28;20442;-62
2022/03/17 09:18:47;;;;;;;41.93;37.40;;;11.00;99.90;;;;;;5016963;28;20452;-62
2022/03/17 09:21:14;;;;;;;42.23;37.43;;;11.10;99.90;;;;;;5015989;28;20473;-63
2022/03/17 09:23:41;;;;;;;49.43;39.17;;;11.20;99.90;;;;;;5023154;28;20465;-63
2022/03/17 09:26:08;;;;;;;41.80;36.07;;;11.30;99.90;;;;;;5020189;28;20489;-62
2022/03/17 09:28:35;;;;;;;40.47;36.17;;;11.30;99.90;;;;;;5015577;28;20809;-62
2022/03/17 09:31:02;;;;;;;39.53;35.30;;;11.30;99.90;;;;;;5018494;28;20531;-63
2022/03/17 09:33:30;;;;;;;40.20;35.90;;;11.30;99.90;;;;;;5015323;28;20465;-62
2022/03/17 09:35:57;;;;;;;43.23;37.73;;;11.40;99.90;;;;;;5015999;28;21019;-62
2022/03/17 09:38:25;;;;;;;40.73;36.63;;;11.40;99.90;;;;;;5015968;28;20936;-63
2022/03/17 09:40:51;;;;;;;43.50;37.13;;;11.50;99.90;;;;;;5018665;28;20512;-62
2022/03/17 09:43:22;;;;;;;39.30;35.17;;;11.50;99.90;;;;;;5015322;28;20523;-62
2022/03/17 09:45:51;;;;;;;44.30;38.13;;;11.60;99.90;;;;;;5015560;28;20448;-62
2022/03/17 09:48:20;;;;;;;39.57;35.47;;;11.70;99.90;;;;;;5014887;28;20964;-62
2022/03/17 09:50:53;;;;;;;44.43;37.07;;;11.70;99.90;;;;;;5015227;28;20573;-63
2022/03/17 09:53:20;;;;;;;40.77;36.40;;;11.90;99.90;;;;;;5015617;28;20448;-63
2022/03/17 09:55:47;;;;;;;39.50;35.43;;;11.90;99.90;;;;;;5015561;28;20461;-62
2022/03/17 09:58:13;;;;;;;51.63;36.30;;;12.00;99.90;;;;;;5015865;28;20485;-64
2022/03/17 10:00:52;;;;;;;41.37;37.17;;;12.10;99.90;;;;;;5016268;28;20485;-63
2022/03/17 10:03:21;;;;;;;40.33;36.10;;;12.20;99.90;;;;;;5015706;28;20793;-64
2022/03/17 10:05:50;;;;;;;41.10;36.80;;;12.20;99.90;;;;;;5015503;28;20464;-63
2022/03/17 10:08:18;;;;;;;40.10;35.97;;;12.20;99.90;;;;;;5015101;28;20913;-63
2022/03/17 10:10:45;;;;;;;43.43;38.60;;;12.20;99.90;;;;;;5014861;28;20926;-64
2022/03/17 10:13:14;;;;;;;43.10;37.07;;;12.20;99.90;;;;;;5015603;28;20800;-64
2022/03/17 10:15:42;;;;;;;39.80;35.00;;;12.30;99.90;;;;;;5015131;28;20468;-64
2022/03/17 10:18:20;;;;;;;44.87;37.60;;;12.40;99.90;;;;;;5027588;28;20453;-64
2022/03/17 10:20:49;;;;;;;41.60;37.10;;;12.50;99.90;;;;;;5025945;28;20481;-64
2022/03/17 10:23:24;;;;;;;39.77;35.57;;;12.50;99.90;;;;;;5027241;28;21007;-64
2022/03/17 10:25:55;;;;;;;39.27;35.17;;;12.50;99.90;;;;;;5015912;28;20464;-64
2022/03/17 10:28:26;;;;;;;42.20;37.67;;;12.60;99.90;;;;;;5015047;28;20447;-64
2022/03/17 10:31:03;;;;;;;37.53;33.63;;;12.70;99.90;;;;;;5015456;28;21018;-64
2022/03/17 10:33:30;;;;;;;40.20;35.90;;;12.70;99.90;;;;;;5025501;28;20468;-63
2022/03/17 10:36:19;;;;;;;40.60;36.17;;;12.70;99.90;;;;;;5028193;28;20462;-63
2022/03/17 10:38:46;;;;;;;39.27;34.93;;;12.90;99.90;;;;;;5020914;28;20437;-63
2022/03/17 10:41:13;;;;;;;39.50;35.30;;;12.80;99.90;;;;;;5039590;28;20488;-63
2022/03/17 10:43:42;;;;;;;40.37;35.97;;;12.90;99.90;;;;;;5021031;28;20511;-63
2022/03/17 10:46:11;;;;;;;40.80;36.50;;;13.00;99.90;;;;;;5019111;28;20457;-63
2022/03/17 10:48:53;;;;;;;41.70;36.47;;;13.00;99.90;;;;;;5019028;28;20437;-63
2022/03/17 10:51:32;;;;;;;42.00;37.33;;;13.10;99.90;;;;;;5019054;28;20500;-63
2022/03/17 10:54:04;;;;;;;40.07;35.33;;;13.10;99.90;;;;;;5018913;28;20437;-63
2022/03/17 10:56:31;;;;;;;41.60;37.20;;;13.20;99.90;;;;;;5018256;28;20444;-63
2022/03/17 10:58:59;;;;;;;39.23;35.13;;;13.30;99.90;;;;;;5018471;28;20794;-64
2022/03/17 11:01:36;;;;;;;41.27;36.97;;;13.40;99.90;;;;;;5018057;28;20508;-63
2022/03/17 11:04:04;;;;;;;39.87;35.63;;;13.40;99.90;;;;;;5019377;28;20791;-63
2022/03/17 11:06:33;;;;;;;51.70;35.80;;;13.30;99.90;;;;;;5018717;28;20449;-62
2022/03/17 11:09:08;;;;;;;48.17;37.33;;;13.30;99.90;;;;;;5019687;28;20457;-67
2022/03/17 11:11:35;;;;;;;40.50;35.17;;;13.30;99.90;;;;;;5022134;28;20496;-63
2022/03/17 11:14:03;;;;;;;39.50;35.43;;;13.40;99.90;;;;;;5019953;28;20453;-63
2022/03/17 11:16:34;;;;;;;41.37;36.10;;;13.40;99.90;;;;;;5017828;28;20943;-63
2022/03/17 11:19:02;;;;;;;45.73;36.60;;;13.40;99.90;;;;;;5018293;28;20441;-64
2022/03/17 11:21:31;;;;;;;47.83;37.03;;;13.50;99.90;;;;;;5017750;28;20894;-64
2022/03/17 11:24:04;;;;;;;45.00;37.17;;;13.40;99.90;;;;;;5017788;28;20456;-64
2022/03/17 11:26:35;;;;;;;37.93;33.97;;;13.50;99.90;;;;;;5018107;28;20438;-63
2022/03/17 11:29:04;;;;;;;40.07;35.37;;;13.40;99.90;;;;;;5018070;28;20445;-63
2022/03/17 11:31:51;;;;;;;40.23;34.93;;;13.40;99.90;;;;;;5030449;28;20441;-63
2022/03/17 11:34:48;;;;;;;44.67;35.70;;;13.40;99.90;;;;;;5030035;28;20429;-63
2022/03/17 11:37:26;;;;;;;40.73;36.27;;;13.30;99.90;;;;;;5036845;28;20434;-64
2022/03/17 11:39:55;;;;;;;39.80;35.60;;;13.20;99.90;;;;;;5035843;28;20460;-63
2022/03/17 11:42:34;;;;;;;43.90;36.43;;;13.10;99.90;;;;;;5035207;28;20465;-63
2022/03/17 11:45:03;;;;;;;41.27;36.17;;;13.10;99.90;;;;;;5034503;28;20441;-64
2022/03/17 11:47:36;;;;;;;39.70;35.57;;;13.10;99.90;;;;;;5034380;28;20449;-63
2022/03/17 11:50:22;;;;;;;40.97;36.67;;;13.20;99.90;;;;;;5033163;28;20437;-63
2022/03/17 11:52:52;;;;;;;41.13;36.40;;;13.20;99.90;;;;;;5034157;28;20472;-63
2022/03/17 11:55:33;;;;;;;42.47;36.60;;;13.20;99.90;;;;;;5033082;28;20438;-63
2022/03/17 11:58:23;;;;;;;42.43;36.50;;;13.10;99.90;;;;;;5036209;28;20445;-63
2022/03/17 12:00:53;;;;;;;38.77;34.97;;;13.10;99.90;;;;;;5036078;28;20948;-63
2022/03/17 12:03:30;;;;;;;41.83;37.43;;;13.10;99.90;;;;;;5030494;28;20528;-63
2022/03/17 12:06:05;;;;;;;39.93;35.80;;;13.10;99.90;;;;;;5031404;28;20457;-64
2022/03/17 12:08:35;;;;;;;;;;;13.00;99.90;;;;;;5035482;28;20305;-64
2022/03/17 12:11:06;;;;;;;;;;;12.90;99.90;;;;;;5035941;28;19921;-63
2022/03/17 12:13:35;;;;;;;;;;;12.90;99.90;;;;;;5033499;28;19921;-64
2022/03/17 12:16:01;;;;;;;;;;;12.90;99.90;;;;;;5020849;28;19921;-64
2022/03/17 12:18:28;;;;;;;;;;;12.90;99.90;;;;;;5019892;28;19921;-64
2022/03/17 12:20:57;;;;;;;;;;;12.90;99.90;;;;;;5018358;28;20377;-64
2022/03/17 12:23:42;;;;;;;;;;;12.80;99.90;;;;;;5018796;28;19972;-63
2022/03/17 12:26:10;;;;;;;;;;;12.90;99.90;;;;;;5018162;28;19956;-63
2022/03/17 12:28:43;;;;;;;;;;;12.90;99.90;;;;;;5018062;28;20395;-63
2022/03/17 12:31:10;;;;;;;;;;;13.00;99.90;;;;;;5018171;28;19928;-62
2022/03/17 12:33:37;;;;;;;;;;;13.00;99.90;;;;;;5020256;28;19928;-63
2022/03/17 12:36:04;;;;;;;;;;;13.00;99.90;;;;;;5034723;28;19928;-63
2022/03/17 12:38:31;;;;;;;;;;;13.00;99.90;;;;;;5020591;28;19936;-63
2022/03/17 12:40:57;;;;;;;;;;;13.00;99.90;;;;;;5018591;28;19929;-64
2022/03/17 12:43:25;;;;;;;;;;;13.00;99.90;;;;;;5025764;28;19961;-63
2022/03/17 12:45:52;;;;;;;;;;;13.00;99.90;;;;;;5034692;28;19952;-63
2022/03/17 12:48:19;;;;;;;;;;;13.00;99.90;;;;;;5017854;28;19979;-63
2022/03/17 12:50:47;;;;;;;42.57;37.00;;;12.90;99.90;;;;;;5017898;28;20172;-63
2022/03/17 12:53:14;;;;;;;38.93;34.63;;;12.90;99.90;;;;;;5017309;28;20819;-64
2022/03/17 12:55:41;;;;;;;38.80;34.57;;;12.80;99.90;;;;;;5017203;28;20464;-64
2022/03/17 12:58:08;;;;;;;38.73;34.60;;;12.90;99.90;;;;;;5017322;28;20454;-65
2022/03/17 13:00:42;;;;;;;38.83;34.70;;;13.00;99.90;;;;;;5016545;28;20485;-63
2022/03/17 13:03:17;;;;;;;40.40;36.10;;;13.20;99.90;;;;;;5017759;28;20464;-63
2022/03/17 13:08:37;;;;;;;41.27;37.07;;;13.20;99.90;;;;;;5017034;28;20501;-63
2022/03/17 13:16:43;;;;;;;42.30;35.43;;;13.00;99.90;;;;;;5018994;28;20959;-63
2022/03/17 13:19:10;;;;;;;40.10;35.77;;;12.90;99.90;;;;;;5018484;28;20441;-63
2022/03/17 13:21:38;;;;;;;43.20;37.70;;;12.90;99.90;;;;;;5024602;28;21003;-63
2022/03/17 13:24:15;;;;;;;42.53;38.23;;;12.90;99.90;;;;;;5028993;28;20460;-63
2022/03/17 13:26:42;;;;;;;43.67;36.60;;;12.80;99.90;;;;;;5029855;28;20437;-63
2022/03/17 13:29:13;;;;;;;40.80;36.70;;;12.80;99.90;;;;;;5029284;28;20449;-63
2022/03/17 13:31:44;;;;;;;42.60;37.00;;;12.70;99.90;;;;;;5026253;28;20560;-63
2022/03/17 13:34:28;;;;;;;44.70;36.83;;;12.60;99.90;;;;;;5024475;28;20441;-63
2022/03/17 13:36:57;;;;;;;41.77;36.77;;;12.60;99.90;;;;;;5019621;28;20464;-64
2022/03/17 13:39:32;;;;;;;41.67;37.37;;;12.60;99.90;;;;;;5027124;28;20449;-63
2022/03/17 13:42:03;;;;;;;42.57;36.30;;;12.60;99.90;;;;;;5028947;28;20531;-64
2022/03/17 13:44:43;;;;;;;43.03;35.40;;;12.50;99.90;;;;;;5027657;28;20505;-63
2022/03/17 13:47:13;;;;;;;40.40;35.97;;;12.60;99.90;;;;;;5029647;28;20464;-63
2022/03/17 13:49:40;;;;;;;42.00;36.87;;;12.60;99.90;;;;;;5030114;28;20453;-63
2022/03/17 13:52:10;;;;;;;41.93;37.40;;;12.60;99.90;;;;;;5028514;28;20463;-63
2022/03/17 13:54:41;;;;;;;38.17;34.20;;;12.50;99.90;;;;;;5030008;28;20449;-63
2022/03/17 13:57:08;;;;;;;40.97;36.60;;;12.30;99.90;;;;;;5029492;28;20446;-63
2022/03/17 13:59:35;;;;;;;42.73;38.03;;;12.20;99.90;;;;;;5028706;28;20449;-63
2022/03/17 14:02:13;;;;;;;40.07;35.87;;;12.10;99.90;;;;;;5018799;28;21011;-63
2022/03/17 14:04:53;;;;;;;42.83;35.97;;;12.00;99.90;;;;;;5016654;28;20473;-64
2022/03/17 14:07:19;;;;;;;40.30;36.10;;;11.90;99.90;;;;;;5015788;28;20469;-63
2022/03/17 14:09:46;;;;;;;39.63;35.47;;;11.90;99.90;;;;;;5019358;28;20528;-63
2022/03/17 14:12:13;;;;;;;42.30;37.80;;;11.90;99.90;;;;;;5019705;28;20476;-63
2022/03/17 14:14:40;;;;;;;41.23;36.70;;;11.90;99.90;;;;;;5020816;28;20459;-63
2022/03/17 14:17:09;;;;;;;43.13;38.57;;;11.90;99.90;;;;;;5020476;28;20511;-63
2022/03/17 14:19:37;;;;;;;40.63;36.33;;;11.90;99.90;;;;;;5020908;28;20555;-64
2022/03/17 14:24:48;;;;;;;43.33;38.57;;;11.80;99.90;;;;;;5022722;28;20421;-64
2022/03/17 14:27:15;;;;;;;;;;;11.80;99.90;;;;;;5021699;28;20956;-63
2022/03/17 14:29:42;;;;;;;41.70;37.03;;;11.80;99.90;;;;;;5020067;28;20060;-63
2022/03/17 14:32:09;;;;;;;43.60;37.90;;;11.80;99.90;;;;;;5020988;28;20828;-63
2022/03/17 14:34:37;;;;;;;41.87;37.50;;;11.80;99.90;;;;;;5023015;28;20453;-63
2022/03/17 14:37:04;;;;;;;43.57;38.83;;;11.80;99.90;;;;;;5020477;28;20452;-63
2022/03/17 14:39:31;;;;;;;48.30;38.00;;;11.80;99.90;;;;;;5026640;28;20449;-63
2022/03/17 14:41:58;;;;;;;43.13;38.43;;;11.80;99.90;;;;;;5036890;28;20476;-63
2022/03/17 14:44:26;;;;;;;43.40;38.80;;;11.80;99.90;;;;;;5021993;28;20936;-63
2022/03/17 14:46:53;;;;;;;41.83;36.57;;;11.80;99.90;;;;;;5019736;28;20448;-63
2022/03/17 14:49:20;;;;;;;44.00;38.33;;;11.80;99.90;;;;;;5018515;28;20455;-62
2022/03/17 14:51:48;;;;;;;41.63;37.20;;;11.90;99.90;;;;;;5019346;28;20473;-63
2022/03/17 14:54:15;;;;;;;43.03;38.57;;;11.90;99.90;;;;;;5019067;28;20507;-62
2022/03/17 14:56:43;;;;;;;42.80;38.30;;;11.90;99.90;;;;;;5019015;28;20453;-62
2022/03/17 14:59:10;;;;;;;44.70;37.40;;;11.90;99.90;;;;;;5019169;28;20808;-63
2022/03/17 15:01:37;;;;;;;42.50;38.00;;;11.90;99.90;;;;;;5018817;28;20495;-63
2022/03/17 15:04:04;;;;;;;40.87;36.63;;;11.90;99.90;;;;;;5019988;28;20553;-63
2022/03/17 15:06:31;;;;;;;43.20;38.70;;;11.90;99.90;;;;;;5031208;28;20479;-64
2022/03/17 15:08:59;;;;;;;43.87;39.00;;;12.00;99.90;;;;;;5038859;28;20488;-63
2022/03/17 15:11:26;;;;;;;41.27;36.97;;;12.00;99.90;;;;;;5039436;28;20469;-63
2022/03/17 15:13:53;;;;;;;41.23;37.13;;;12.00;99.90;;;;;;5038355;28;20472;-63
2022/03/17 15:16:20;;;;;;;40.10;35.90;;;12.00;99.90;;;;;;5026810;28;20460;-63
2022/03/17 15:18:47;;;;;;;42.30;38.00;;;12.00;99.90;;;;;;5019229;28;20544;-63
2022/03/17 15:21:14;;;;;;;42.40;38.10;;;12.00;99.90;;;;;;5018893;28;20477;-63
2022/03/17 15:23:40;;;;;;;39.07;34.87;;;12.00;99.90;;;;;;5019306;28;20453;-63
2022/03/17 15:26:09;;;;;;;42.63;38.00;;;12.00;99.90;;;;;;5018156;28;20453;-63
2022/03/17 15:31:21;;;;;;;42.03;37.73;;;12.10;99.90;;;;;;5026543;28;20468;-64
2022/03/17 15:33:48;;;;;;;41.27;37.23;;;12.10;99.90;;;;;;5029420;28;20539;-63
2022/03/17 15:36:15;;;;;;;41.53;37.23;;;12.10;99.90;;;;;;5022581;28;20461;-64
2022/03/17 15:38:43;;;;;;;42.37;37.87;;;12.10;99.90;;;;;;5019961;28;20976;-64
2022/03/17 15:41:14;;;;;;;41.30;37.20;;;12.20;99.90;;;;;;5019709;28;20564;-63
2022/03/17 15:43:42;;;;;;;41.80;37.53;;;12.20;99.90;;;;;;5019054;28;20445;-63
2022/03/17 15:46:08;;;;;;;41.57;37.37;;;12.20;99.90;;;;;;5018780;28;20511;-63
2022/03/17 15:48:36;;;;;;;42.73;38.43;;;12.30;99.90;;;;;;5018311;28;20453;-63
2022/03/17 15:51:03;;;;;;;40.90;36.60;;;12.30;99.90;;;;;;5018022;28;20466;-64
2022/03/17 15:53:30;;;;;;;39.33;35.37;;;12.20;99.90;;;;;;5017459;28;20963;-64
2022/03/17 15:55:57;;;;;;;40.57;36.53;;;12.20;99.90;;;;;;5017811;28;20810;-64
2022/03/17 15:58:25;;;;;;;41.50;37.30;;;12.20;99.90;;;;;;5018425;28;20554;-63
2022/03/17 16:00:51;;;;;;;40.73;36.43;;;12.20;99.90;;;;;;5018389;28;20535;-63
2022/03/17 16:03:19;;;;;;;40.00;35.87;;;12.10;99.90;;;;;;5018109;28;20515;-63
2022/03/17 16:05:46;;;;;;;38.90;35.10;;;12.20;99.90;;;;;;5017928;28;20452;-63
2022/03/17 16:08:13;;;;;;;40.37;36.40;;;12.20;99.90;;;;;;5017124;28;20971;-63
2022/03/17 16:16:09;;;;;;;38.93;34.83;;;12.10;99.90;;;;;;5017191;28;20468;-62
2022/03/17 16:18:36;;;;;;;40.30;36.10;;;12.20;99.90;;;;;;5018101;28;20452;-64
2022/03/17 16:21:03;;;;;;;42.03;36.70;;;12.30;99.90;;;;;;5025624;28;20480;-63
2022/03/17 16:23:34;;;;;;;41.00;36.60;;;12.40;99.90;;;;;;5019282;28;20873;-62
2022/03/17 16:26:01;;;;;;;39.03;35.00;;;12.40;99.90;;;;;;5018744;28;20437;-62
2022/03/17 16:28:29;;;;;;;42.33;37.80;;;12.40;99.90;;;;;;5019542;28;20453;-63
2022/03/17 16:30:56;;;;;;;44.17;37.80;;;12.30;99.90;;;;;;5018439;28;20480;-63
2022/03/17 16:33:23;;;;;;;41.50;37.30;;;12.30;99.90;;;;;;5018420;28;20998;-62
2022/03/17 16:35:50;;;;;;;41.20;36.83;;;12.20;99.90;;;;;;5018350;28;20453;-62
2022/03/17 16:38:18;;;;;;;43.07;38.47;;;12.20;99.90;;;;;;5017774;28;20437;-62
2022/03/17 16:40:45;;;;;;;43.67;39.27;;;12.10;99.90;;;;;;5017776;28;20510;-61
2022/03/17 16:43:13;;;;;;;41.80;37.30;;;12.00;99.90;;;;;;5022042;28;20481;-62
2022/03/17 16:45:42;;;;;;;41.73;36.80;;;12.00;99.90;;;;;;5034827;28;20453;-62
2022/03/17 16:48:13;;;;;;;44.40;37.53;;;11.90;99.90;;;;;;5018482;28;20453;-63
2022/03/17 16:50:40;;;;;;;47.83;39.20;;;11.80;99.90;;;;;;5017095;28;20572;-63
2022/03/17 16:53:07;;;;;;;42.77;38.27;;;11.80;99.90;;;;;;5016911;28;20449;-70
2022/03/17 16:55:33;;;;;;;42.40;38.10;;;11.70;99.90;;;;;;5018270;28;20971;-61
2022/03/17 16:58:03;;;;;;;40.20;36.00;;;11.80;99.90;;;;;;5018530;28;20464;-62
2022/03/17 17:00:31;;;;;;;40.67;36.37;;;11.70;99.90;;;;;;5017777;28;20460;-63
2022/03/17 17:02:59;;;;;;;39.30;35.10;;;11.70;99.90;;;;;;5018585;28;20469;-62
2022/03/17 17:05:27;;;;;;;38.50;34.50;;;11.70;99.90;;;;;;5026102;28;20453;-64
2022/03/17 17:07:53;;;;;;;38.37;34.17;;;11.60;99.90;;;;;;5018287;28;20457;-63
2022/03/17 17:10:20;;;;;;;37.97;33.93;;;11.50;99.90;;;;;;5019392;28;20460;-63
2022/03/17 17:12:47;;;;;;;38.80;33.70;;;11.50;99.90;;;;;;5018826;28;20457;-63
2022/03/17 17:15:14;;;;;;;36.90;31.33;;;11.40;99.90;;;;;;5019383;28;20449;-61
2022/03/17 17:17:41;;;;;;;41.97;33.10;;;11.40;99.90;;;;;;5019642;28;20442;-61
2022/03/17 17:20:12;;;;;;;40.90;34.90;;;11.30;99.90;;;;;;5018524;28;21012;-62
2022/03/17 17:30:51;;;;;;;39.50;34.30;;;11.00;99.90;;;;;;5019336;28;20487;-63
2022/03/17 17:33:19;;;;;;;42.30;36.77;;;11.10;99.90;;;;;;5019300;28;20449;-63
2022/03/17 17:35:47;;;;;;;41.43;37.23;;;11.00;99.90;;;;;;5018455;28;20455;-63
2022/03/17 17:38:14;;;;;;;41.13;36.43;;;10.80;99.90;;;;;;5018239;28;20476;-63
2022/03/17 17:40:43;;;;;;;41.83;37.43;;;10.90;99.90;;;;;;5017845;28;20476;-63
2022/03/17 17:43:10;;;;;;;40.33;35.37;;;10.80;99.90;;;;;;5018577;28;20559;-63
2022/03/17 17:45:38;;;;;;;39.93;35.40;;;10.80;99.90;;;;;;5017307;28;20967;-63
2022/03/17 17:48:06;;;;;;;41.60;37.20;;;10.80;99.90;;;;;;5017978;28;20489;-63
2022/03/17 17:50:35;;;;;;;41.57;35.90;;;10.80;99.90;;;;;;5018440;28;20485;-63
2022/03/17 17:53:04;;;;;;;41.07;36.87;;;10.80;99.90;;;;;;5017313;28;20453;-63
2022/03/17 17:55:32;;;;;;;42.93;38.53;;;10.70;99.90;;;;;;5017532;28;20933;-63
2022/03/17 17:57:59;;;;;;;44.23;39.53;;;10.70;99.90;;;;;;5017562;28;20457;-63
2022/03/17 18:00:27;;;;;;;42.30;37.77;;;10.60;99.90;;;;;;5016698;28;20479;-63
2022/03/17 18:02:54;;;;;;;44.23;38.57;;;10.60;99.90;;;;;;5017078;28;20803;-63
2022/03/17 18:05:21;;;;;;;42.00;37.13;;;10.60;99.90;;;;;;5017418;28;20454;-63
2022/03/17 18:07:47;;;;;;;40.13;35.60;;;10.60;99.90;;;;;;5016585;28;20943;-63
2022/03/17 18:10:15;;;;;;;39.30;35.07;;;10.50;99.90;;;;;;5017249;28;20461;-63
2022/03/17 18:12:53;;;;;;;40.77;36.30;;;10.50;99.90;;;;;;5017364;28;20445;-61